Decoded Metar for KXSA ( in _UNIDENTIFIED) (IATA:N/A) | Meteo·Mobile Aviation Weather
aviador You're here:

KXSA Decoded Metar

in _UNIDENTIFIED
Report Time2020-02-22 22:15:00
UTC Time2020-02-22 22:31:13
Flight Rules vfr VFR
Wind200° at 03 kt
W.Decomp.*RWY 28: 1.1 kt HW 2.8 kt LCW
Visibility9999 m
Phenomena:N/A
Clouds:N/A
Expected CloudBase > 7,600 ft AGL from Temp-Dew spread
CeilingNone
Temp11°C (ISA -4)
Dew Point-8°C (26% RH)
AAT7.0°C
QNH1026 hPa
Density Alt-696 ft
Elevation138 ft
Report Wrong Elevation
Raw Report
METAR KXSA 222215Z AUTO 20003KT 10SM CLR 11/M08 A3029 RMK AO2 T01071082=

Extra information for KXSA:More info

Metar Taf Metar & Taf Last 4 Metars F.Rules Stats Wind Profile Meteogram Temp Stats Metar ALERT Operation Metar Decoded Social comments